sensor_id;sensor_type;location;lat;lon;timestamp;pressure;altitude;pressure_sealevel;temperature;humidity
18533;BME280;9396;51.510;11.934;2023-02-08T00:01:38;103105.09;;;-1.37;91.72
18533;BME280;9396;51.510;11.934;2023-02-08T00:04:05;103114.97;;;-1.86;92.76
18533;BME280;9396;51.510;11.934;2023-02-08T00:06:32;103109.66;;;-1.71;93.16
18533;BME280;9396;51.510;11.934;2023-02-08T00:08:58;103110.38;;;-1.46;93.45
18533;BME280;9396;51.510;11.934;2023-02-08T00:11:25;103110.53;;;-1.70;93.19
18533;BME280;9396;51.510;11.934;2023-02-08T00:13:52;103093.34;;;-2.04;94.24
18533;BME280;9396;51.510;11.934;2023-02-08T00:16:19;103115.28;;;-2.54;95.19
18533;BME280;9396;51.510;11.934;2023-02-08T00:18:47;103119.69;;;-3.04;96.92
18533;BME280;9396;51.510;11.934;2023-02-08T00:21:15;103108.44;;;-2.94;98.48
18533;BME280;9396;51.510;11.934;2023-02-08T00:23:43;102896.13;;;-3.79;98.58
18533;BME280;9396;51.510;11.934;2023-02-08T00:26:10;103104.00;;;-2.56;97.91
18533;BME280;9396;51.510;11.934;2023-02-08T00:28:37;103110.97;;;-2.76;98.52
18533;BME280;9396;51.510;11.934;2023-02-08T00:31:04;103110.84;;;-2.37;98.37
18533;BME280;9396;51.510;11.934;2023-02-08T00:33:31;103101.28;;;-2.29;97.08
18533;BME280;9396;51.510;11.934;2023-02-08T00:35:59;103109.13;;;-2.32;96.34
18533;BME280;9396;51.510;11.934;2023-02-08T00:38:26;103113.53;;;-2.58;96.53
18533;BME280;9396;51.510;11.934;2023-02-08T00:40:53;103110.13;;;-2.76;97.96
18533;BME280;9396;51.510;11.934;2023-02-08T00:43:20;103117.94;;;-2.90;98.34
18533;BME280;9396;51.510;11.934;2023-02-08T00:45:46;103114.34;;;-2.38;98.06
18533;BME280;9396;51.510;11.934;2023-02-08T00:48:13;103104.66;;;-2.07;97.31
18533;BME280;9396;51.510;11.934;2023-02-08T00:50:39;103105.47;;;-1.99;96.73
18533;BME280;9396;51.510;11.934;2023-02-08T00:53:07;103100.97;;;-1.74;95.91
18533;BME280;9396;51.510;11.934;2023-02-08T00:55:34;103103.53;;;-1.62;95.12
18533;BME280;9396;51.510;11.934;2023-02-08T00:58:01;103100.81;;;-1.49;95.00
18533;BME280;9396;51.510;11.934;2023-02-08T01:00:27;103095.56;;;-1.43;94.59
18533;BME280;9396;51.510;11.934;2023-02-08T01:02:54;103101.72;;;-1.54;94.19
18533;BME280;9396;51.510;11.934;2023-02-08T01:05:20;103109.66;;;-1.72;94.06
18533;BME280;9396;51.510;11.934;2023-02-08T01:07:47;103101.81;;;-1.65;94.35
18533;BME280;9396;51.510;11.934;2023-02-08T01:10:15;103105.16;;;-1.49;94.10
18533;BME280;9396;51.510;11.934;2023-02-08T01:12:42;103109.59;;;-1.57;93.90
18533;BME280;9396;51.510;11.934;2023-02-08T01:15:08;103103.44;;;-1.50;94.13
18533;BME280;9396;51.510;11.934;2023-02-08T01:17:35;103111.50;;;-1.83;93.53
18533;BME280;9396;51.510;11.934;2023-02-08T01:20:02;103119.53;;;-2.23;94.20
18533;BME280;9396;51.510;11.934;2023-02-08T01:22:28;103118.84;;;-2.94;95.74
18533;BME280;9396;51.510;11.934;2023-02-08T01:24:55;103118.00;;;-3.24;97.78
18533;BME280;9396;51.510;11.934;2023-02-08T01:27:23;103117.97;;;-3.46;98.79
18533;BME280;9396;51.510;11.934;2023-02-08T01:29:50;103120.56;;;-3.31;100.00
18533;BME280;9396;51.510;11.934;2023-02-08T01:32:17;103128.38;;;-3.29;100.00
18533;BME280;9396;51.510;11.934;2023-02-08T01:34:43;103115.38;;;-3.35;99.95
18533;BME280;9396;51.510;11.934;2023-02-08T01:37:10;103126.66;;;-3.24;99.78
18533;BME280;9396;51.510;11.934;2023-02-08T01:39:37;103121.44;;;-3.45;100.00
18533;BME280;9396;51.510;11.934;2023-02-08T01:42:03;103127.53;;;-3.39;100.00
18533;BME280;9396;51.510;11.934;2023-02-08T01:47:48;103126.66;;;-3.39;100.00
18533;BME280;9396;51.510;11.934;2023-02-08T01:50:19;103132.72;;;-3.36;100.00
18533;BME280;9396;51.510;11.934;2023-02-08T01:52:48;103127.50;;;-3.52;100.00
18533;BME280;9396;51.510;11.934;2023-02-08T01:55:19;103135.31;;;-3.16;100.00
18533;BME280;9396;51.510;11.934;2023-02-08T01:57:48;103123.19;;;-3.44;100.00
18533;BME280;9396;51.510;11.934;2023-02-08T02:00:18;103118.81;;;-3.60;100.00
18533;BME280;9396;51.510;11.934;2023-02-08T02:02:49;103122.28;;;-3.51;100.00
18533;BME280;9396;51.510;11.934;2023-02-08T02:05:19;103126.63;;;-3.69;100.00
18533;BME280;9396;51.510;11.934;2023-02-08T02:07:47;103114.50;;;-3.13;100.00
18533;BME280;9396;51.510;11.934;2023-02-08T02:10:18;103104.97;;;-3.03;100.00
18533;BME280;9396;51.510;11.934;2023-02-08T02:12:48;103110.97;;;-2.64;100.00
18533;BME280;9396;51.510;11.934;2023-02-08T02:15:16;103107.47;;;-2.57;99.18
18533;BME280;9396;51.510;11.934;2023-02-08T02:17:43;103117.94;;;-2.90;97.83
18533;BME280;9396;51.510;11.934;2023-02-08T02:20:41;103112.75;;;-3.11;97.44
18533;BME280;9396;51.510;11.934;2023-02-08T02:23:34;103122.25;;;-3.88;99.18
18533;BME280;9396;51.510;11.934;2023-02-08T02:26:31;103124.88;;;-3.63;100.00
18533;BME280;9396;51.510;11.934;2023-02-08T02:29:17;103132.72;;;-3.16;100.00
18533;BME280;9396;51.510;11.934;2023-02-08T02:32:08;103124.91;;;-3.05;99.73
18533;BME280;9396;51.510;11.934;2023-02-08T02:34:41;103120.56;;;-3.11;98.69
18533;BME280;9396;51.510;11.934;2023-02-08T02:37:21;103124.94;;;-3.28;98.47
18533;BME280;9396;51.510;11.934;2023-02-08T02:39:59;103119.72;;;-3.25;99.02
18533;BME280;9396;51.510;11.934;2023-02-08T02:42:36;103083.19;;;-4.11;99.45
18533;BME280;9396;51.510;11.934;2023-02-08T02:45:31;103118.81;;;-3.56;100.00
18533;BME280;9396;51.510;11.934;2023-02-08T02:48:05;103121.44;;;-3.36;100.00
18533;BME280;9396;51.510;11.934;2023-02-08T02:50:36;103046.88;;;-3.55;100.00
18533;BME280;9396;51.510;11.934;2023-02-08T02:53:10;103121.44;;;-2.97;99.91
18533;BME280;9396;51.510;11.934;2023-02-08T02:55:41;103116.19;;;-2.79;99.23
18533;BME280;9396;51.510;11.934;2023-02-08T02:58:10;103115.34;;;-2.90;98.99
18533;BME280;9396;51.510;11.934;2023-02-08T03:00:39;103116.25;;;-3.12;98.70
18533;BME280;9396;51.510;11.934;2023-02-08T03:03:12;102977.56;;;-3.83;99.09
18533;BME280;9396;51.510;11.934;2023-02-08T03:05:43;103123.09;;;-2.63;98.86
18533;BME280;9396;51.510;11.934;2023-02-08T03:08:20;103117.03;;;-2.63;97.85
18533;BME280;9396;51.510;11.934;2023-02-08T03:11:03;103117.94;;;-2.78;97.58
18533;BME280;9396;51.510;11.934;2023-02-08T03:13:49;103124.84;;;-2.65;97.31
18533;BME280;9396;51.510;11.934;2023-02-08T03:16:27;103124.78;;;-2.41;97.53
18533;BME280;9396;51.510;11.934;2023-02-08T03:19:05;103120.59;;;-3.12;96.60
18533;BME280;9396;51.510;11.934;2023-02-08T03:21:42;103114.50;;;-3.13;97.97
18533;BME280;9396;51.510;11.934;2023-02-08T03:24:24;102988.78;;;-3.65;97.19
18533;BME280;9396;51.510;11.934;2023-02-08T03:26:57;103116.19;;;-2.70;96.98
18533;BME280;9396;51.510;11.934;2023-02-08T03:29:36;103117.13;;;-3.20;96.84
18533;BME280;9396;51.510;11.934;2023-02-08T03:32:08;103118.84;;;-3.15;97.18
18533;BME280;9396;51.510;11.934;2023-02-08T03:34:42;103124.06;;;-3.10;96.91
18533;BME280;9396;51.510;11.934;2023-02-08T03:37:14;103123.13;;;-2.81;96.98
18533;BME280;9396;51.510;11.934;2023-02-08T03:39:42;103125.72;;;-2.66;96.73
18533;BME280;9396;51.510;11.934;2023-02-08T03:42:14;103129.19;;;-2.68;95.46
18533;BME280;9396;51.510;11.934;2023-02-08T03:44:45;103122.25;;;-2.68;95.85
18533;BME280;9396;51.510;11.934;2023-02-08T03:47:17;103115.25;;;-2.52;95.59
18533;BME280;9396;51.510;11.934;2023-02-08T03:49:48;103123.19;;;-3.23;94.76
18533;BME280;9396;51.510;11.934;2023-02-08T03:52:17;103110.16;;;-3.03;95.88
18533;BME280;9396;51.510;11.934;2023-02-08T03:54:48;103114.41;;;-2.63;95.70
18533;BME280;9396;51.510;11.934;2023-02-08T03:57:20;103109.13;;;-2.36;95.47
18533;BME280;9396;51.510;11.934;2023-02-08T03:59:52;103107.38;;;-2.31;94.95
18533;BME280;9396;51.510;11.934;2023-02-08T04:02:20;103114.31;;;-2.33;93.86
18533;BME280;9396;51.510;11.934;2023-02-08T04:04:52;103117.00;;;-2.56;94.75
18533;BME280;9396;51.510;11.934;2023-02-08T04:07:19;103106.50;;;-2.27;94.47
18533;BME280;9396;51.510;11.934;2023-02-08T04:09:46;103109.97;;;-2.31;94.49
18533;BME280;9396;51.510;11.934;2023-02-08T04:12:13;103109.22;;;-2.59;93.88
18533;BME280;9396;51.510;11.934;2023-02-08T04:14:39;103109.16;;;-2.47;94.07
18533;BME280;9396;51.510;11.934;2023-02-08T04:17:06;103109.22;;;-2.68;94.54
18533;BME280;9396;51.510;11.934;2023-02-08T04:19:33;103117.97;;;-3.32;95.16
18533;BME280;9396;51.510;11.934;2023-02-08T04:22:01;103114.50;;;-3.07;96.39
18533;BME280;9396;51.510;11.934;2023-02-08T04:24:27;103108.41;;;-2.85;96.38
18533;BME280;9396;51.510;11.934;2023-02-08T04:26:54;103106.66;;;-2.84;95.78
18533;BME280;9396;51.510;11.934;2023-02-08T04:29:20;103104.09;;;-2.90;95.83
18533;BME280;9396;51.510;11.934;2023-02-08T04:31:47;103109.31;;;-3.17;95.76
18533;BME280;9396;51.510;11.934;2023-02-08T04:34:14;103108.38;;;-2.70;95.94
18533;BME280;9396;51.510;11.934;2023-02-08T04:36:41;103107.44;;;-2.48;95.63
18533;BME280;9396;51.510;11.934;2023-02-08T04:39:09;103122.97;;;-2.24;95.57
18533;BME280;9396;51.510;11.934;2023-02-08T04:41:36;103100.34;;;-2.11;94.71
18533;BME280;9396;51.510;11.934;2023-02-08T04:44:02;103098.69;;;-2.29;94.76
18533;BME280;9396;51.510;11.934;2023-02-08T04:46:29;103097.66;;;-2.00;94.35
18533;BME280;9396;51.510;11.934;2023-02-08T04:48:55;103094.28;;;-2.21;93.75
18533;BME280;9396;51.510;11.934;2023-02-08T04:51:22;103101.38;;;-2.57;93.38
18533;BME280;9396;51.510;11.934;2023-02-08T04:53:49;103097.09;;;-2.66;93.75
18533;BME280;9396;51.510;11.934;2023-02-08T04:56:17;103086.69;;;-2.88;94.19
18533;BME280;9396;51.510;11.934;2023-02-08T04:58:43;103090.19;;;-2.98;95.19
18533;BME280;9396;51.510;11.934;2023-02-08T05:01:10;103091.97;;;-3.06;94.95
18533;BME280;9396;51.510;11.934;2023-02-08T05:03:37;103097.16;;;-3.29;94.97
18533;BME280;9396;51.510;11.934;2023-02-08T05:06:04;103091.09;;;-3.52;95.75
18533;BME280;9396;51.510;11.934;2023-02-08T05:08:31;103089.34;;;-3.29;96.42
18533;BME280;9396;51.510;11.934;2023-02-08T05:10:57;103084.16;;;-3.15;95.88
18533;BME280;9396;51.510;11.934;2023-02-08T05:13:25;103076.34;;;-3.43;96.28
18533;BME280;9396;51.510;11.934;2023-02-08T05:15:52;103079.81;;;-3.56;97.39
18533;BME280;9396;51.510;11.934;2023-02-08T05:18:19;103070.28;;;-3.16;97.50
18533;BME280;9396;51.510;11.934;2023-02-08T05:20:53;103082.41;;;-3.36;96.97
18533;BME280;9396;51.510;11.934;2023-02-08T05:23:20;103085.88;;;-3.33;97.29
18533;BME280;9396;51.510;11.934;2023-02-08T05:25:46;103089.31;;;-2.93;96.99
18533;BME280;9396;51.510;11.934;2023-02-08T05:28:13;103092.72;;;-2.62;96.51
18533;BME280;9396;51.510;11.934;2023-02-08T05:30:41;103090.06;;;-2.43;96.28
18533;BME280;9396;51.510;11.934;2023-02-08T05:33:08;103091.72;;;-2.30;95.06
18533;BME280;9396;51.510;11.934;2023-02-08T05:35:34;103089.91;;;-2.12;94.78
18533;BME280;9396;51.510;11.934;2023-02-08T05:38:01;103091.59;;;-2.02;93.68
18533;BME280;9396;51.510;11.934;2023-02-08T05:40:27;103087.28;;;-2.03;93.81
18533;BME280;9396;51.510;11.934;2023-02-08T05:42:54;103088.22;;;-2.21;93.03
18533;BME280;9396;51.510;11.934;2023-02-08T05:45:21;103094.22;;;-2.10;92.77
18533;BME280;9396;51.510;11.934;2023-02-08T05:47:49;103102.16;;;-2.33;93.41
18533;BME280;9396;51.510;11.934;2023-02-08T05:50:16;103089.06;;;-2.14;93.43
18533;BME280;9396;51.510;11.934;2023-02-08T05:52:42;103098.59;;;-2.07;93.22
18533;BME280;9396;51.510;11.934;2023-02-08T05:55:09;103095.09;;;-2.06;92.93
18533;BME280;9396;51.510;11.934;2023-02-08T05:57:35;103095.94;;;-1.98;92.23
18533;BME280;9396;51.510;11.934;2023-02-08T06:00:04;103095.06;;;-1.99;92.12
18533;BME280;9396;51.510;11.934;2023-02-08T06:02:31;103098.53;;;-1.98;91.13
18533;BME280;9396;51.510;11.934;2023-02-08T06:04:59;103100.38;;;-2.19;90.99
18533;BME280;9396;51.510;11.934;2023-02-08T06:07:26;103101.19;;;-2.09;91.38
18533;BME280;9396;51.510;11.934;2023-02-08T06:09:54;103102.91;;;-2.02;91.39
18533;BME280;9396;51.510;11.934;2023-02-08T06:12:20;103113.38;;;-2.11;91.54
18533;BME280;9396;51.510;11.934;2023-02-08T06:14:47;103108.13;;;-2.08;91.45
18533;BME280;9396;51.510;11.934;2023-02-08T06:17:14;103104.63;;;-1.96;91.10
18533;BME280;9396;51.510;11.934;2023-02-08T06:19:40;103102.81;;;-1.88;90.63
18533;BME280;9396;51.510;11.934;2023-02-08T06:22:08;103104.53;;;-1.83;89.99
18533;BME280;9396;51.510;11.934;2023-02-08T06:24:35;103108.88;;;-1.80;90.11
18533;BME280;9396;51.510;11.934;2023-02-08T06:27:02;103099.41;;;-2.02;89.86
18533;BME280;9396;51.510;11.934;2023-02-08T06:29:28;103104.84;;;-2.46;91.17
18533;BME280;9396;51.510;11.934;2023-02-08T06:31:55;103107.38;;;-2.27;91.35
18533;BME280;9396;51.510;11.934;2023-02-08T06:34:21;103101.19;;;-2.09;91.12
18533;BME280;9396;51.510;11.934;2023-02-08T06:36:48;103104.88;;;-2.55;91.21
18533;BME280;9396;51.510;11.934;2023-02-08T06:39:16;103107.53;;;-2.99;92.93
18533;BME280;9396;51.510;11.934;2023-02-08T06:41:43;103103.25;;;-3.04;94.01
18533;BME280;9396;51.510;11.934;2023-02-08T06:44:10;103099.78;;;-3.17;94.69
18533;BME280;9396;51.510;11.934;2023-02-08T06:46:36;103108.38;;;-2.77;94.63
18533;BME280;9396;51.510;11.934;2023-02-08T06:49:03;103108.34;;;-2.62;94.17
18533;BME280;9396;51.510;11.934;2023-02-08T06:51:29;103105.72;;;-2.59;93.55
18533;BME280;9396;51.510;11.934;2023-02-08T06:53:56;103103.97;;;-2.48;93.49
18533;BME280;9396;51.510;11.934;2023-02-08T06:56:24;103108.22;;;-2.25;92.93
18533;BME280;9396;51.510;11.934;2023-02-08T06:58:51;103102.06;;;-2.05;92.63
18533;BME280;9396;51.510;11.934;2023-02-08T07:01:17;103099.34;;;-1.87;92.29
18533;BME280;9396;51.510;11.934;2023-02-08T07:03:44;103093.28;;;-1.95;92.01
18533;BME280;9396;51.510;11.934;2023-02-08T07:06:11;103081.09;;;-1.87;91.68
18533;BME280;9396;51.510;11.934;2023-02-08T07:08:38;103101.91;;;-1.78;90.82
18533;BME280;9396;51.510;11.934;2023-02-08T07:11:06;103113.41;;;-2.14;91.42
18533;BME280;9396;51.510;11.934;2023-02-08T07:13:35;103098.56;;;-2.01;91.36
18533;BME280;9396;51.510;11.934;2023-02-08T07:16:02;103108.97;;;-1.98;91.14
18533;BME280;9396;51.510;11.934;2023-02-08T07:18:29;103101.25;;;-2.21;92.10
18533;BME280;9396;51.510;11.934;2023-02-08T07:20:55;103108.97;;;-2.04;91.79
18533;BME280;9396;51.510;11.934;2023-02-08T07:23:22;103099.38;;;-1.93;91.57
18533;BME280;9396;51.510;11.934;2023-02-08T07:25:56;103109.88;;;-2.10;92.29
18533;BME280;9396;51.510;11.934;2023-02-08T07:28:23;103097.66;;;-1.96;91.07
18533;BME280;9396;51.510;11.934;2023-02-08T07:30:52;103020.56;;;-2.38;90.79
18533;BME280;9396;51.510;11.934;2023-02-08T07:33:19;103099.66;;;-2.57;91.94
18533;BME280;9396;51.510;11.934;2023-02-08T07:35:45;103104.97;;;-3.31;94.17
18533;BME280;9396;51.510;11.934;2023-02-08T07:38:12;103103.22;;;-3.03;95.66
18533;BME280;9396;51.510;11.934;2023-02-08T07:40:39;103099.72;;;-2.78;95.86
18533;BME280;9396;51.510;11.934;2023-02-08T07:43:05;103098.84;;;-2.71;95.97
18533;BME280;9396;51.510;11.934;2023-02-08T07:45:32;103104.97;;;-3.03;95.61
18533;BME280;9396;51.510;11.934;2023-02-08T07:48:00;103108.41;;;-2.83;95.34
18533;BME280;9396;51.510;11.934;2023-02-08T07:50:27;103110.13;;;-2.75;95.68
18533;BME280;9396;51.510;11.934;2023-02-08T07:52:53;103107.34;;;-2.30;95.50
18533;BME280;9396;51.510;11.934;2023-02-08T07:55:20;103103.88;;;-2.24;94.80
18533;BME280;9396;51.510;11.934;2023-02-08T07:57:47;103101.16;;;-2.06;93.80
18533;BME280;9396;51.510;11.934;2023-02-08T08:00:16;103110.84;;;-2.37;94.24
18533;BME280;9396;51.510;11.934;2023-02-08T08:02:44;102891.72;;;-3.56;94.67
18533;BME280;9396;51.510;11.934;2023-02-08T08:05:12;103112.50;;;-2.13;94.87
18533;BME280;9396;51.510;11.934;2023-02-08T08:07:39;103111.53;;;-1.89;94.73
18533;BME280;9396;51.510;11.934;2023-02-08T08:10:05;103107.94;;;-1.72;94.34
18533;BME280;9396;51.510;11.934;2023-02-08T08:12:32;103105.53;;;-2.05;93.24
18533;BME280;9396;51.510;11.934;2023-02-08T08:14:59;103108.94;;;-1.95;93.24
18533;BME280;9396;51.510;11.934;2023-02-08T08:17:25;103108.88;;;-1.82;92.23
18533;BME280;9396;51.510;11.934;2023-02-08T08:19:52;103114.09;;;-1.80;92.67
18533;BME280;9396;51.510;11.934;2023-02-08T08:22:20;103115.97;;;-2.11;93.02
18533;BME280;9396;51.510;11.934;2023-02-08T08:24:47;103100.13;;;-1.72;92.84
18533;BME280;9396;51.510;11.934;2023-02-08T08:27:13;103109.84;;;-1.99;93.03
18533;BME280;9396;51.510;11.934;2023-02-08T08:29:40;103116.81;;;-2.03;93.26
18533;BME280;9396;51.510;11.934;2023-02-08T08:32:07;103122.91;;;-2.07;93.32
18533;BME280;9396;51.510;11.934;2023-02-08T08:34:34;103120.38;;;-2.24;92.97
18533;BME280;9396;51.510;11.934;2023-02-08T08:37:01;103110.69;;;-1.96;93.34
18533;BME280;9396;51.510;11.934;2023-02-08T08:39:29;103111.47;;;-1.79;94.33
18533;BME280;9396;51.510;11.934;2023-02-08T08:41:56;103101.72;;;-1.54;93.86
18533;BME280;9396;51.510;11.934;2023-02-08T08:44:23;103105.00;;;-1.28;92.91
18533;BME280;9396;51.510;11.934;2023-02-08T08:46:53;103110.34;;;-1.43;91.88
18533;BME280;9396;51.510;11.934;2023-02-08T08:49:20;103102.53;;;-1.48;92.15
18533;BME280;9396;51.510;11.934;2023-02-08T08:51:46;103114.16;;;-1.95;91.41
18533;BME280;9396;51.510;11.934;2023-02-08T08:54:13;103112.59;;;-2.36;93.85
18533;BME280;9396;51.510;11.934;2023-02-08T08:56:41;103102.97;;;-2.20;93.86
18533;BME280;9396;51.510;11.934;2023-02-08T08:59:07;103105.38;;;-1.81;93.68
18533;BME280;9396;51.510;11.934;2023-02-08T09:01:34;103117.81;;;-2.34;93.29
18533;BME280;9396;51.510;11.934;2023-02-08T09:04:01;103108.28;;;-2.40;93.21
18533;BME280;9396;51.510;11.934;2023-02-08T09:06:27;103111.00;;;-2.88;94.99
18533;BME280;9396;51.510;11.934;2023-02-08T09:08:54;103124.00;;;-2.64;95.95
18533;BME280;9396;51.510;11.934;2023-02-08T09:11:20;103119.56;;;-2.36;96.12
18533;BME280;9396;51.510;11.934;2023-02-08T09:13:48;103117.75;;;-2.21;95.89
18533;BME280;9396;51.510;11.934;2023-02-08T09:16:18;103121.19;;;-2.05;96.34
18533;BME280;9396;51.510;11.934;2023-02-08T09:18:45;103122.78;;;-1.83;95.25
18533;BME280;9396;51.510;11.934;2023-02-08T09:21:13;103124.63;;;-2.06;94.26
18533;BME280;9396;51.510;11.934;2023-02-08T09:23:41;103133.28;;;-1.96;94.15
18533;BME280;9396;51.510;11.934;2023-02-08T09:26:09;103126.19;;;-1.70;94.05
18533;BME280;9396;51.510;11.934;2023-02-08T09:28:37;103128.78;;;-1.70;93.65
18533;BME280;9396;51.510;11.934;2023-02-08T09:31:09;103132.56;;;-2.33;94.97
18533;BME280;9396;51.510;11.934;2023-02-08T09:33:36;103124.66;;;-2.03;95.86
18533;BME280;9396;51.510;11.934;2023-02-08T09:36:03;103126.47;;;-2.25;95.18
18533;BME280;9396;51.510;11.934;2023-02-08T09:38:30;103110.06;;;-2.60;96.69
18533;BME280;9396;51.510;11.934;2023-02-08T09:41:04;103127.28;;;-2.10;96.43
18533;BME280;9396;51.510;11.934;2023-02-08T09:43:41;103124.72;;;-2.24;95.47
18533;BME280;9396;51.510;11.934;2023-02-08T09:46:14;103128.38;;;-3.00;96.86
18533;BME280;9396;51.510;11.934;2023-02-08T09:48:42;103117.94;;;-2.84;99.06
18533;BME280;9396;51.510;11.934;2023-02-08T09:51:18;103121.41;;;-2.79;99.72
18533;BME280;9396;51.510;11.934;2023-02-08T09:53:50;103122.28;;;-2.93;99.34
18533;BME280;9396;51.510;11.934;2023-02-08T09:56:26;103113.47;;;-2.34;99.79
18533;BME280;9396;51.510;11.934;2023-02-08T09:58:54;103116.03;;;-2.22;99.52
18533;BME280;9396;51.510;11.934;2023-02-08T10:01:25;103110.72;;;-2.02;98.97
18533;BME280;9396;51.510;11.934;2023-02-08T10:03:55;103105.38;;;-1.79;98.39
18533;BME280;9396;51.510;11.934;2023-02-08T10:06:24;103107.00;;;-1.60;97.62
18533;BME280;9396;51.510;11.934;2023-02-08T10:08:51;103097.25;;;-1.36;96.56
18533;BME280;9396;51.510;11.934;2023-02-08T10:11:41;103089.25;;;-1.19;94.85
18533;BME280;9396;51.510;11.934;2023-02-08T10:14:24;103088.22;;;-1.03;94.05
18533;BME280;9396;51.510;11.934;2023-02-08T10:17:08;103090.75;;;-0.94;93.46
18533;BME280;9396;51.510;11.934;2023-02-08T10:19:53;103089.81;;;-0.87;93.04
18533;BME280;9396;51.510;11.934;2023-02-08T10:22:31;103081.41;;;-1.16;92.88
18533;BME280;9396;51.510;11.934;2023-02-08T10:25:24;103095.44;;;-1.28;93.46
18533;BME280;9396;51.510;11.934;2023-02-08T10:28:05;103086.56;;;-1.07;94.25
18533;BME280;9396;51.510;11.934;2023-02-08T10:30:40;102884.75;;;-1.98;93.46
18533;BME280;9396;51.510;11.934;2023-02-08T10:33:16;103076.47;;;-0.60;93.09
18533;BME280;9396;51.510;11.934;2023-02-08T10:35:46;103082.72;;;-0.74;92.77
18533;BME280;9396;51.510;11.934;2023-02-08T10:38:23;103079.59;;;-1.10;92.84
18533;BME280;9396;51.510;11.934;2023-02-08T10:40:54;103083.75;;;-0.90;93.70
18533;BME280;9396;51.510;11.934;2023-02-08T10:43:28;103076.03;;;-0.98;93.03
18533;BME280;9396;51.510;11.934;2023-02-08T10:46:04;103079.00;;;-1.37;93.47
18533;BME280;9396;51.510;11.934;2023-02-08T10:48:43;103077.69;;;-0.94;93.80
18533;BME280;9396;51.510;11.934;2023-02-08T10:51:15;103075.13;;;-0.97;94.46
18533;BME280;9396;51.510;11.934;2023-02-08T10:53:42;103075.53;;;-0.54;94.48
18533;BME280;9396;51.510;11.934;2023-02-08T10:56:21;103070.97;;;-0.36;94.09
18533;BME280;9396;51.510;11.934;2023-02-08T10:58:50;103075.16;;;-0.98;91.72
18533;BME280;9396;51.510;11.934;2023-02-08T11:01:17;103073.81;;;-0.57;93.08
18533;BME280;9396;51.510;11.934;2023-02-08T11:06:40;103058.66;;;-0.28;91.75
18533;BME280;9396;51.510;11.934;2023-02-08T11:09:19;103064.50;;;-0.79;91.44
18533;BME280;9396;51.510;11.934;2023-02-08T11:11:47;103061.91;;;-0.80;91.84
18533;BME280;9396;51.510;11.934;2023-02-08T11:14:18;103056.47;;;-0.64;92.39
18533;BME280;9396;51.510;11.934;2023-02-08T11:16:50;103052.09;;;-0.59;92.78
18533;BME280;9396;51.510;11.934;2023-02-08T11:19:21;102980.91;;;-0.79;92.06
18533;BME280;9396;51.510;11.934;2023-02-08T11:21:50;103053.19;;;-0.79;91.43
18533;BME280;9396;51.510;11.934;2023-02-08T11:24:26;103055.94;;;-0.96;92.67
18533;BME280;9396;51.510;11.934;2023-02-08T11:26:53;103050.50;;;-1.67;94.27
18533;BME280;9396;51.510;11.934;2023-02-08T11:29:23;103042.25;;;-1.16;94.63
18533;BME280;9396;51.510;11.934;2023-02-08T11:31:58;103044.72;;;-1.02;95.65
18533;BME280;9396;51.510;11.934;2023-02-08T11:34:27;103050.34;;;-0.61;94.87
18533;BME280;9396;51.510;11.934;2023-02-08T11:36:56;103048.81;;;-0.77;93.39
18533;BME280;9396;51.510;11.934;2023-02-08T11:39:26;103054.94;;;-0.78;93.82
18533;BME280;9396;51.510;11.934;2023-02-08T11:41:57;103046.22;;;-0.80;94.40
18533;BME280;9396;51.510;11.934;2023-02-08T11:44:27;103044.00;;;-0.41;94.58
18533;BME280;9396;51.510;11.934;2023-02-08T11:46:57;103048.06;;;-0.19;93.36
18533;BME280;9396;51.510;11.934;2023-02-08T11:49:29;103044.31;;;-0.01;92.94
18533;BME280;9396;51.510;11.934;2023-02-08T11:51:58;103037.75;;;-0.29;91.70
18533;BME280;9396;51.510;11.934;2023-02-08T11:54:37;103028.78;;;-0.12;92.57
18533;BME280;9396;51.510;11.934;2023-02-08T11:57:16;103033.72;;;0.08;92.99
18533;BME280;9396;51.510;11.934;2023-02-08T11:59:44;103031.34;;;-0.06;91.47
18533;BME280;9396;51.510;11.934;2023-02-08T12:02:24;103030.28;;;0.06;91.35
18533;BME280;9396;51.510;11.934;2023-02-08T12:04:52;103031.06;;;0.11;91.72
18533;BME280;9396;51.510;11.934;2023-02-08T12:07:23;103024.00;;;0.16;91.68
18533;BME280;9396;51.510;11.934;2023-02-08T12:12:51;103010.69;;;0.31;92.08
18533;BME280;9396;51.510;11.934;2023-02-08T12:15:30;103009.72;;;0.37;91.59
18533;BME280;9396;51.510;11.934;2023-02-08T12:18:19;103003.34;;;0.53;91.83
18533;BME280;9396;51.510;11.934;2023-02-08T12:20:53;102999.94;;;0.48;90.29
18533;BME280;9396;51.510;11.934;2023-02-08T12:23:33;102994.78;;;0.43;90.96
18533;BME280;9396;51.510;11.934;2023-02-08T12:26:09;102997.50;;;0.37;90.47
18533;BME280;9396;51.510;11.934;2023-02-08T12:28:48;102993.63;;;0.59;90.52
18533;BME280;9396;51.510;11.934;2023-02-08T12:31:22;102983.94;;;0.66;89.82
18533;BME280;9396;51.510;11.934;2023-02-08T12:34:00;102981.13;;;0.75;90.00
18533;BME280;9396;51.510;11.934;2023-02-08T12:36:37;102973.16;;;0.81;89.91
18533;BME280;9396;51.510;11.934;2023-02-08T12:39:16;102972.09;;;0.89;89.91
18533;BME280;9396;51.510;11.934;2023-02-08T12:42:14;102968.66;;;0.89;89.65
18533;BME280;9396;51.510;11.934;2023-02-08T12:44:57;102965.16;;;0.88;90.32
18533;BME280;9396;51.510;11.934;2023-02-08T12:47:36;102962.97;;;0.66;88.76
18533;BME280;9396;51.510;11.934;2023-02-08T12:50:13;102951.22;;;0.86;90.03
18533;BME280;9396;51.510;11.934;2023-02-08T12:52:45;102953.25;;;0.72;89.54
18533;BME280;9396;51.510;11.934;2023-02-08T12:55:19;102960.72;;;0.45;90.08
18533;BME280;9396;51.510;11.934;2023-02-08T12:57:50;102956.00;;;0.65;89.50
18533;BME280;9396;51.510;11.934;2023-02-08T13:00:20;102947.94;;;0.75;89.87
18533;BME280;9396;51.510;11.934;2023-02-08T13:02:55;102948.59;;;0.39;89.07
18533;BME280;9396;51.510;11.934;2023-02-08T13:05:28;102951.06;;;0.50;89.85
18533;BME280;9396;51.510;11.934;2023-02-08T13:08:01;102935.94;;;0.64;90.98
18533;BME280;9396;51.510;11.934;2023-02-08T13:10:33;102948.03;;;0.71;89.76
18533;BME280;9396;51.510;11.934;2023-02-08T13:13:07;102930.59;;;0.70;89.65
18533;BME280;9396;51.510;11.934;2023-02-08T13:15:40;102927.50;;;0.94;89.35